^^
Saratoga-Weather Station Historical Data
Daily Summary for March 03, 2021 Units:  English    Metric   Both
Daily Weekly Monthly Yearly Custom
  High: Low: Average:
Temperature: 48.6 °F 36.9 °F 40.3 °F
Dew Point: 40.3 °F 34.5 °F 36.5 °F
Humidity: 92% 73% 87%
Wind Speed: 2.9mph 0mph 0.1mph
Wind Gust: 3mph - -
Wind- - East
Pressure: 30.4 in 30.4 in -
Precipitation: 0 in    
Historical Graphs
 
 
Tabular Data for March 03, 2021
Time Temperature Dew Point Pressure Wind Wind Speed Wind Gust Humidity Rainfall Rate (Hourly) solar
00:02 41.7 °F 36.9 °F 30.4 in Calm     83% 0 in 0 W/m2
00:07 41.7 °F 36.7 °F 30.4 in Calm     82% 0 in 0 W/m2
00:12 41.7 °F 36.7 °F 30.4 in Calm     82% 0 in 0 W/m2
00:17 41.7 °F 36.9 °F 30.4 in Calm     83% 0 in 0 W/m2
00:22 41.5 °F 36.5 °F 30.4 in Calm     82% 0 in 0 W/m2
00:27 41.5 °F 36.5 °F 30.4 in Calm     82% 0 in 0 W/m2
00:32 41.4 °F 36.3 °F 30.4 in Calm     82% 0 in 0 W/m2
00:37 41.2 °F 36.1 °F 30.4 in Calm     82% 0 in 0 W/m2
00:42 41.2 °F 36.1 °F 30.4 in Calm     82% 0 in 0 W/m2
00:47 41.2 °F 36.5 °F 30.4 in Calm     83% 0 in 0 W/m2
00:52 41.2 °F 36.5 °F 30.4 in Calm     83% 0 in 0 W/m2
00:57 41.2 °F 36.5 °F 30.4 in Calm     83% 0 in 0 W/m2
01:02 41.2 °F 36.5 °F 30.4 in Calm     83% 0 in 0 W/m2
01:07 41 °F 36.5 °F 30.4 in Calm     84% 0 in 0 W/m2
01:12 40.8 °F 36.3 °F 30.4 in Calm     84% 0 in 0 W/m2
01:17 40.6 °F 36.1 °F 30.4 in Calm     84% 0 in 0 W/m2
01:22 40.5 °F 36 °F 30.4 in Calm     84% 0 in 0 W/m2
01:27 40.5 °F 36.3 °F 30.4 in Calm     85% 0 in 0 W/m2
01:32 40.5 °F 36.3 °F 30.4 in Calm     85% 0 in 0 W/m2
01:37 40.3 °F 36.5 °F 30.4 in Calm     86% 0 in 0 W/m2
01:42 40.3 °F 36.5 °F 30.4 in Calm     86% 0 in 0 W/m2
01:47 40.1 °F 36.3 °F 30.4 in Calm     86% 0 in 0 W/m2
01:52 39.9 °F 36.1 °F 30.4 in Calm     86% 0 in 0 W/m2
01:57 39.9 °F 36.1 °F 30.4 in Calm     86% 0 in 0 W/m2
02:02 39.9 °F 36.1 °F 30.4 in Calm     86% 0 in 0 W/m2
02:07 39.9 °F 36.1 °F 30.4 in Calm     86% 0 in 0 W/m2
02:12 39.9 °F 36.1 °F 30.4 in Calm     86% 0 in 0 W/m2
02:17 39.9 °F 36.3 °F 30.4 in Calm     87% 0 in 0 W/m2
02:22 40.3 °F 36.7 °F 30.4 in Calm     87% 0 in 0 W/m2
02:27 40.3 °F 36.5 °F 30.4 in Calm     86% 0 in 0 W/m2
02:32 40.3 °F 36.5 °F 30.4 in Calm     86% 0 in 0 W/m2
02:37 40.3 °F 36.5 °F 30.4 in Calm     86% 0 in 0 W/m2
02:42 40.3 °F 36.5 °F 30.4 in Calm   1 mph 86% 0 in 0 W/m2
02:47 40.3 °F 36.5 °F 30.4 in Calm     86% 0 in 0 W/m2
02:52 40.3 °F 36.5 °F 30.4 in Calm     86% 0 in 0 W/m2
02:57 40.1 °F 36.3 °F 30.4 in Calm     86% 0 in 0 W/m2
03:02 40.1 °F 36.3 °F 30.4 in Calm     86% 0 in 0 W/m2
03:07 39.9 °F 36.1 °F 30.4 in Calm     86% 0 in 0 W/m2
03:12 39.9 °F 36.3 °F 30.4 in Calm     87% 0 in 0 W/m2
03:22 39.7 °F 36.1 °F 30.4 in Calm     87% 0 in 0 W/m2
03:27 39.7 °F 36.5 °F 30.4 in Calm     88% 0 in 0 W/m2
03:32 39.7 °F 36.5 °F 30.4 in Calm   1 mph 88% 0 in 0 W/m2
03:37 39.9 °F 36.7 °F 30.4 in Calm   1 mph 88% 0 in 0 W/m2
03:42 39.9 °F 36.7 °F 30.4 in Calm     88% 0 in 0 W/m2
03:47 39.9 °F 36.7 °F 30.4 in Calm     88% 0 in 0 W/m2
03:52 39.9 °F 36.7 °F 30.4 in Calm     88% 0 in 0 W/m2
03:58 39.9 °F 36.7 °F 30.4 in Calm     88% 0 in 0 W/m2
04:03 39.7 °F 36.1 °F 30.4 in Calm     87% 0 in 0 W/m2
04:08 39.7 °F 36.1 °F 30.4 in Calm     87% 0 in 0 W/m2
04:13 39.7 °F 36.1 °F 30.4 in Calm     87% 0 in 0 W/m2
04:18 39.6 °F 36 °F 30.4 in Calm     87% 0 in 0 W/m2
04:23 39.6 °F 36 °F 30.4 in South 0.9 mph 1 mph 87% 0 in 0 W/m2
04:28 39.7 °F 36.1 °F 30.4 in Calm     87% 0 in 0 W/m2
04:33 39.7 °F 36.5 °F 30.4 in Calm     88% 0 in 0 W/m2
04:38 39.7 °F 36.5 °F 30.4 in Calm     88% 0 in 0 W/m2
04:43 39.7 °F 36.5 °F 30.4 in Calm     88% 0 in 0 W/m2
04:48 39.7 °F 36.5 °F 30.4 in Calm     88% 0 in 0 W/m2
04:53 39.7 °F 36.5 °F 30.4 in Calm     88% 0 in 0 W/m2
04:58 39.7 °F 36.5 °F 30.4 in Calm     88% 0 in 0 W/m2
05:03 39.7 °F 36.5 °F 30.4 in Calm     88% 0 in 0 W/m2
05:08 39.7 °F 36.5 °F 30.4 in Calm     88% 0 in 0 W/m2
05:13 39.7 °F 36.5 °F 30.4 in Calm     88% 0 in 0 W/m2
05:18 39.6 °F 36.3 °F 30.4 in Calm     88% 0 in 0 W/m2
05:23 39.6 °F 36.3 °F 30.4 in Calm     88% 0 in 0 W/m2
05:28 39.4 °F 36.1 °F 30.4 in Calm     88% 0 in 0 W/m2
05:33 39 °F 35.8 °F 30.4 in Calm     88% 0 in 0 W/m2
05:38 39 °F 35.8 °F 30.4 in Calm     88% 0 in 0 W/m2
05:43 38.8 °F 35.6 °F 30.4 in Calm     88% 0 in 0 W/m2
05:48 38.8 °F 35.6 °F 30.4 in Calm     88% 0 in 0 W/m2
05:53 38.7 °F 35.4 °F 30.4 in Calm     88% 0 in 0 W/m2
05:58 38.7 °F 35.8 °F 30.4 in Calm     89% 0 in 0 W/m2
06:03 38.5 °F 35.6 °F 30.4 in Calm     89% 0 in 0 W/m2
06:08 38.5 °F 35.6 °F 30.4 in Calm     89% 0 in 0 W/m2
06:13 38.3 °F 35.4 °F 30.4 in Calm     89% 0 in 0 W/m2
06:18 38.3 °F 35.4 °F 30.4 in Calm     89% 0 in 0 W/m2
06:23 38.1 °F 35.2 °F 30.4 in Calm     89% 0 in 0 W/m2
06:28 37.9 °F 35.1 °F 30.4 in Calm     89% 0 in 0 W/m2
06:33 37.9 °F 35.1 °F 30.4 in Calm     89% 0 in 0 W/m2
06:38 37.9 °F 35.2 °F 30.4 in Calm     90% 0 in 0 W/m2
06:43 37.9 °F 35.2 °F 30.4 in Calm     90% 0 in 0 W/m2
06:48 37.9 °F 35.2 °F 30.4 in Calm     90% 0 in 0 W/m2
06:53 37.8 °F 35.1 °F 30.4 in Calm     90% 0 in 0 W/m2
06:58 37.8 °F 35.1 °F 30.4 in Calm     90% 0 in 0 W/m2
07:03 37.6 °F 34.9 °F 30.4 in Calm     90% 0 in 0 W/m2
07:08 37.6 °F 34.9 °F 30.4 in Calm     90% 0 in 0 W/m2
07:13 37.6 °F 34.9 °F 30.4 in Calm     90% 0 in 0 W/m2
07:18 37.2 °F 34.5 °F 30.4 in Calm     90% 0 in 0 W/m2
07:23 37.2 °F 34.5 °F 30.4 in Calm     90% 0 in 5 W/m2
07:28 37.2 °F 34.9 °F 30.4 in Calm     91% 0 in 7 W/m2
07:33 37.2 °F 34.9 °F 30.4 in Calm     91% 0 in 9 W/m2
07:38 37.2 °F 34.9 °F 30.4 in Calm     91% 0 in 9 W/m2
07:43 37.2 °F 34.9 °F 30.4 in Calm     91% 0 in 12 W/m2
07:48 37.2 °F 34.9 °F 30.4 in Calm     91% 0 in 12 W/m2
07:53 37.2 °F 34.9 °F 30.4 in Calm     91% 0 in 14 W/m2
07:58 37.2 °F 34.9 °F 30.4 in Calm     91% 0 in 18 W/m2
08:03 37 °F 34.7 °F 30.4 in Calm     91% 0 in 21 W/m2
08:08 37 °F 34.7 °F 30.4 in Calm     91% 0 in 28 W/m2
08:13 36.9 °F 34.5 °F 30.4 in Calm     91% 0 in 35 W/m2
08:18 37 °F 34.7 °F 30.4 in Calm     91% 0 in 44 W/m2
08:23 37 °F 34.7 °F 30.4 in South 0.9 mph 1 mph 91% 0 in 56 W/m2
08:28 37.2 °F 35.1 °F 30.4 in Calm     92% 0 in 62 W/m2
08:33 37.6 °F 35.4 °F 30.4 in Calm     92% 0 in 69 W/m2
08:38 37.8 °F 35.6 °F 30.4 in Calm     92% 0 in 74 W/m2
08:43 37.9 °F 35.8 °F 30.4 in Calm     92% 0 in 95 W/m2
08:48 38.1 °F 36 °F 30.4 in Calm     92% 0 in 109 W/m2
08:53 38.5 °F 36.3 °F 30.4 in Calm     92% 0 in 121 W/m2
08:58 38.7 °F 36.3 °F 30.4 in Calm     91% 0 in 130 W/m2
09:03 39 °F 36.7 °F 30.4 in Calm     91% 0 in 141 W/m2
09:08 39.6 °F 37.4 °F 30.4 in Calm     92% 0 in 158 W/m2
09:13 40.1 °F 37.8 °F 30.4 in Calm     91% 0 in 167 W/m2
09:18 40.6 °F 37.9 °F 30.4 in Calm     90% 0 in 178 W/m2
09:23 41.4 °F 38.7 °F 30.4 in Calm     90% 0 in 190 W/m2
09:28 41.9 °F 38.7 °F 30.4 in Calm     88% 0 in 192 W/m2
09:33 42.4 °F 38.8 °F 30.4 in Calm     87% 0 in 209 W/m2
09:38 43.2 °F 39.2 °F 30.4 in ESE 0.9 mph 1 mph 86% 0 in 221 W/m2
09:43 43.7 °F 39.2 °F 30.4 in Calm   2 mph 84% 0 in 232 W/m2
09:48 44.2 °F 39 °F 30.4 in East 2.9 mph 3 mph 82% 0 in 244 W/m2
09:53 44.4 °F 39 °F 30.4 in Calm   1 mph 81% 0 in 257 W/m2
09:58 44.8 °F 39.4 °F 30.4 in Calm   2 mph 81% 0 in 260 W/m2
10:03 45.1 °F 39.4 °F 30.4 in Calm   2 mph 80% 0 in 269 W/m2
10:08 45.5 °F 39 °F 30.4 in East 2 mph 2 mph 78% 0 in 278 W/m2
10:13 45.9 °F 39.4 °F 30.4 in East 0.9 mph 2 mph 78% 0 in 288 W/m2
10:18 46 °F 39.2 °F 30.4 in ENE 2 mph 2 mph 77% 0 in 295 W/m2
10:24 46.6 °F 39.7 °F 30.4 in East 2 mph 2 mph 77% 0 in 304 W/m2
10:29 46.8 °F 39.2 °F 30.4 in ENE 0.9 mph 3 mph 75% 0 in 248 W/m2
10:34 46.8 °F 39.6 °F 30.4 in ENE 0.9 mph 2 mph 76% 0 in 311 W/m2
10:39 46.9 °F 39.4 °F 30.4 in ENE 2 mph 3 mph 75% 0 in 323 W/m2
10:44 47.1 °F 39.6 °F 30.4 in Calm   2 mph 75% 0 in 330 W/m2
10:49 47.7 °F 40.1 °F 30.4 in East 2 mph 3 mph 75% 0 in 343 W/m2
10:54 48.2 °F 40.3 °F 30.4 in East 0.9 mph 2 mph 74% 0 in 350 W/m2
10:59 48.6 °F 40.3 °F 30.4 in East 0.9 mph 3 mph 73% 0 in 353 W/m2
Juneau County Weather
Compliments of Weather Underground - 4 mb